sensor_id;sensor_type;location;lat;lon;timestamp;temperature;humidity
46816;DHT22;32787;53.316;8.670;2022-11-15T00:00:51;7.40;87.80
46816;DHT22;32787;53.316;8.670;2022-11-15T00:03:19;7.40;88.10
46816;DHT22;32787;53.316;8.670;2022-11-15T00:05:46;7.30;88.20
46816;DHT22;32787;53.316;8.670;2022-11-15T00:08:12;7.40;87.90
46816;DHT22;32787;53.316;8.670;2022-11-15T00:10:37;7.30;88.40
46816;DHT22;32787;53.316;8.670;2022-11-15T00:13:11;7.40;88.20
46816;DHT22;32787;53.316;8.670;2022-11-15T00:15:40;7.40;88.00
46816;DHT22;32787;53.316;8.670;2022-11-15T00:18:11;7.50;87.60
46816;DHT22;32787;53.316;8.670;2022-11-15T00:20:37;7.40;88.00
46816;DHT22;32787;53.316;8.670;2022-11-15T00:23:04;7.30;88.20
46816;DHT22;32787;53.316;8.670;2022-11-15T00:25:29;7.30;88.00
46816;DHT22;32787;53.316;8.670;2022-11-15T00:27:56;7.10;88.20
46816;DHT22;32787;53.316;8.670;2022-11-15T00:30:22;6.90;88.50
46816;DHT22;32787;53.316;8.670;2022-11-15T00:32:48;6.90;88.80
46816;DHT22;32787;53.316;8.670;2022-11-15T00:35:14;6.90;88.80
46816;DHT22;32787;53.316;8.670;2022-11-15T00:37:40;6.80;88.90
46816;DHT22;32787;53.316;8.670;2022-11-15T00:40:07;7.10;89.10
46816;DHT22;32787;53.316;8.670;2022-11-15T00:42:33;7.20;88.50
46816;DHT22;32787;53.316;8.670;2022-11-15T00:44:58;7.10;88.10
46816;DHT22;32787;53.316;8.670;2022-11-15T00:47:24;7.00;88.60
46816;DHT22;32787;53.316;8.670;2022-11-15T00:49:50;6.80;88.80
46816;DHT22;32787;53.316;8.670;2022-11-15T00:52:15;6.80;89.00
46816;DHT22;32787;53.316;8.670;2022-11-15T00:54:41;6.80;88.90
46816;DHT22;32787;53.316;8.670;2022-11-15T00:57:06;6.70;89.20
46816;DHT22;32787;53.316;8.670;2022-11-15T00:59:32;6.70;89.10
46816;DHT22;32787;53.316;8.670;2022-11-15T01:01:57;6.50;89.20
46816;DHT22;32787;53.316;8.670;2022-11-15T01:04:23;6.40;89.30
46816;DHT22;32787;53.316;8.670;2022-11-15T01:06:49;6.30;89.40
46816;DHT22;32787;53.316;8.670;2022-11-15T01:09:14;6.20;89.60
46816;DHT22;32787;53.316;8.670;2022-11-15T01:11:40;6.20;89.60
46816;DHT22;32787;53.316;8.670;2022-11-15T01:14:06;6.20;89.80
46816;DHT22;32787;53.316;8.670;2022-11-15T01:16:32;6.20;90.50
46816;DHT22;32787;53.316;8.670;2022-11-15T01:18:58;6.20;90.40
46816;DHT22;32787;53.316;8.670;2022-11-15T01:21:24;6.10;90.10
46816;DHT22;32787;53.316;8.670;2022-11-15T01:23:53;6.10;90.30
46816;DHT22;32787;53.316;8.670;2022-11-15T01:26:20;6.10;90.30
46816;DHT22;32787;53.316;8.670;2022-11-15T01:28:46;6.10;90.10
46816;DHT22;32787;53.316;8.670;2022-11-15T01:31:14;6.00;90.00
46816;DHT22;32787;53.316;8.670;2022-11-15T01:33:40;6.00;90.10
46816;DHT22;32787;53.316;8.670;2022-11-15T01:36:09;6.10;90.30
46816;DHT22;32787;53.316;8.670;2022-11-15T01:38:35;6.30;89.90
46816;DHT22;32787;53.316;8.670;2022-11-15T01:41:01;6.00;90.10
46816;DHT22;32787;53.316;8.670;2022-11-15T01:46:04;5.90;90.40
46816;DHT22;32787;53.316;8.670;2022-11-15T01:48:35;5.90;90.80
46816;DHT22;32787;53.316;8.670;2022-11-15T01:51:04;5.70;91.10
46816;DHT22;32787;53.316;8.670;2022-11-15T01:53:32;5.80;91.30
46816;DHT22;32787;53.316;8.670;2022-11-15T01:56:03;5.70;91.40
46816;DHT22;32787;53.316;8.670;2022-11-15T01:58:29;5.70;91.60
46816;DHT22;32787;53.316;8.670;2022-11-15T02:00:55;5.60;91.60
46816;DHT22;32787;53.316;8.670;2022-11-15T02:03:23;5.50;91.70
46816;DHT22;32787;53.316;8.670;2022-11-15T02:05:51;5.40;91.70
46816;DHT22;32787;53.316;8.670;2022-11-15T02:08:18;5.40;91.90
46816;DHT22;32787;53.316;8.670;2022-11-15T02:10:47;5.40;92.00
46816;DHT22;32787;53.316;8.670;2022-11-15T02:13:14;5.40;92.10
46816;DHT22;32787;53.316;8.670;2022-11-15T02:18:35;5.20;92.10
46816;DHT22;32787;53.316;8.670;2022-11-15T02:22:15;5.40;92.00
46816;DHT22;32787;53.316;8.670;2022-11-15T02:29:43;5.10;91.70
46816;DHT22;32787;53.316;8.670;2022-11-15T02:32:35;5.00;91.90
46816;DHT22;32787;53.316;8.670;2022-11-15T02:37:43;5.00;91.70
46816;DHT22;32787;53.316;8.670;2022-11-15T02:42:54;4.80;91.70
46816;DHT22;32787;53.316;8.670;2022-11-15T02:45:46;4.80;91.90
46816;DHT22;32787;53.316;8.670;2022-11-15T02:48:15;4.90;92.10
46816;DHT22;32787;53.316;8.670;2022-11-15T02:50:42;5.10;92.00
46816;DHT22;32787;53.316;8.670;2022-11-15T02:53:09;5.20;92.00
46816;DHT22;32787;53.316;8.670;2022-11-15T02:55:46;5.40;91.90
46816;DHT22;32787;53.316;8.670;2022-11-15T02:58:26;5.50;91.90
46816;DHT22;32787;53.316;8.670;2022-11-15T03:01:04;5.70;91.70
46816;DHT22;32787;53.316;8.670;2022-11-15T03:06:40;6.30;90.90
46816;DHT22;32787;53.316;8.670;2022-11-15T03:11:50;6.40;90.80
46816;DHT22;32787;53.316;8.670;2022-11-15T03:14:28;6.40;91.00
46816;DHT22;32787;53.316;8.670;2022-11-15T03:17:10;6.60;91.10
46816;DHT22;32787;53.316;8.670;2022-11-15T03:20:09;6.70;90.90
46816;DHT22;32787;53.316;8.670;2022-11-15T03:22:40;6.90;90.90
46816;DHT22;32787;53.316;8.670;2022-11-15T03:25:10;7.00;90.50
46816;DHT22;32787;53.316;8.670;2022-11-15T03:27:47;7.20;90.10
46816;DHT22;32787;53.316;8.670;2022-11-15T03:30:15;7.30;89.90
46816;DHT22;32787;53.316;8.670;2022-11-15T03:32:47;7.40;89.60
46816;DHT22;32787;53.316;8.670;2022-11-15T03:35:20;7.60;89.20
46816;DHT22;32787;53.316;8.670;2022-11-15T03:38:19;7.70;89.10
46816;DHT22;32787;53.316;8.670;2022-11-15T03:40:57;7.70;88.70
46816;DHT22;32787;53.316;8.670;2022-11-15T03:46:30;7.80;88.70
46816;DHT22;32787;53.316;8.670;2022-11-15T03:49:32;7.80;88.70
46816;DHT22;32787;53.316;8.670;2022-11-15T03:51:59;7.80;88.90
46816;DHT22;32787;53.316;8.670;2022-11-15T03:54:25;7.90;88.80
46816;DHT22;32787;53.316;8.670;2022-11-15T03:56:51;7.90;88.90
46816;DHT22;32787;53.316;8.670;2022-11-15T03:59:16;7.90;89.00
46816;DHT22;32787;53.316;8.670;2022-11-15T04:01:42;8.10;89.20
46816;DHT22;32787;53.316;8.670;2022-11-15T04:04:08;8.00;89.10
46816;DHT22;32787;53.316;8.670;2022-11-15T04:06:33;8.00;89.40
46816;DHT22;32787;53.316;8.670;2022-11-15T04:08:59;7.90;89.70
46816;DHT22;32787;53.316;8.670;2022-11-15T04:11:25;8.00;90.00
46816;DHT22;32787;53.316;8.670;2022-11-15T04:13:50;8.00;90.20
46816;DHT22;32787;53.316;8.670;2022-11-15T04:16:16;8.00;90.30
46816;DHT22;32787;53.316;8.670;2022-11-15T04:18:41;8.00;90.40
46816;DHT22;32787;53.316;8.670;2022-11-15T04:21:08;8.00;90.60
46816;DHT22;32787;53.316;8.670;2022-11-15T04:23:52;8.00;90.70
46816;DHT22;32787;53.316;8.670;2022-11-15T04:26:36;8.00;90.90
46816;DHT22;32787;53.316;8.670;2022-11-15T04:29:02;8.10;91.00
46816;DHT22;32787;53.316;8.670;2022-11-15T04:31:46;8.10;91.00
46816;DHT22;32787;53.316;8.670;2022-11-15T04:34:12;8.20;90.90
46816;DHT22;32787;53.316;8.670;2022-11-15T04:36:37;8.20;90.80
46816;DHT22;32787;53.316;8.670;2022-11-15T04:39:22;8.20;90.90
46816;DHT22;32787;53.316;8.670;2022-11-15T04:41:47;8.20;90.90
46816;DHT22;32787;53.316;8.670;2022-11-15T04:44:13;8.20;90.90
46816;DHT22;32787;53.316;8.670;2022-11-15T04:46:38;8.30;90.80
46816;DHT22;32787;53.316;8.670;2022-11-15T04:49:04;8.30;90.70
46816;DHT22;32787;53.316;8.670;2022-11-15T04:51:30;8.30;90.70
46816;DHT22;32787;53.316;8.670;2022-11-15T04:53:55;8.40;90.40
46816;DHT22;32787;53.316;8.670;2022-11-15T04:56:21;8.40;90.30
46816;DHT22;32787;53.316;8.670;2022-11-15T04:58:49;8.40;90.00
46816;DHT22;32787;53.316;8.670;2022-11-15T05:01:15;8.40;90.10
46816;DHT22;32787;53.316;8.670;2022-11-15T05:03:41;8.40;90.10
46816;DHT22;32787;53.316;8.670;2022-11-15T05:06:26;8.50;89.90
46816;DHT22;32787;53.316;8.670;2022-11-15T05:08:51;8.50;89.90
46816;DHT22;32787;53.316;8.670;2022-11-15T05:11:17;8.60;89.90
46816;DHT22;32787;53.316;8.670;2022-11-15T05:13:43;8.50;89.80
46816;DHT22;32787;53.316;8.670;2022-11-15T05:16:08;8.60;89.60
46816;DHT22;32787;53.316;8.670;2022-11-15T05:18:34;8.60;89.40
46816;DHT22;32787;53.316;8.670;2022-11-15T05:21:07;8.70;89.60
46816;DHT22;32787;53.316;8.670;2022-11-15T05:23:33;8.70;88.90
46816;DHT22;32787;53.316;8.670;2022-11-15T05:26:00;8.60;89.10
46816;DHT22;32787;53.316;8.670;2022-11-15T05:28:25;8.60;89.40
46816;DHT22;32787;53.316;8.670;2022-11-15T05:30:51;8.70;89.10
46816;DHT22;32787;53.316;8.670;2022-11-15T05:33:17;8.60;89.40
46816;DHT22;32787;53.316;8.670;2022-11-15T05:35:47;8.60;89.30
46816;DHT22;32787;53.316;8.670;2022-11-15T05:38:15;8.70;89.20
46816;DHT22;32787;53.316;8.670;2022-11-15T05:40:41;8.70;89.10
46816;DHT22;32787;53.316;8.670;2022-11-15T05:43:07;8.80;89.00
46816;DHT22;32787;53.316;8.670;2022-11-15T05:45:34;8.80;89.00
46816;DHT22;32787;53.316;8.670;2022-11-15T05:48:00;8.80;89.00
46816;DHT22;32787;53.316;8.670;2022-11-15T05:50:30;8.80;89.00
46816;DHT22;32787;53.316;8.670;2022-11-15T05:52:56;8.80;88.90
46816;DHT22;32787;53.316;8.670;2022-11-15T05:55:22;8.90;88.80
46816;DHT22;32787;53.316;8.670;2022-11-15T05:57:47;8.90;88.90
46816;DHT22;32787;53.316;8.670;2022-11-15T06:00:13;8.90;88.70
46816;DHT22;32787;53.316;8.670;2022-11-15T06:02:39;8.90;88.70
46816;DHT22;32787;53.316;8.670;2022-11-15T06:05:05;9.10;88.50
46816;DHT22;32787;53.316;8.670;2022-11-15T06:07:30;9.00;88.70
46816;DHT22;32787;53.316;8.670;2022-11-15T06:09:56;9.10;88.60
46816;DHT22;32787;53.316;8.670;2022-11-15T06:12:21;9.10;88.60
46816;DHT22;32787;53.316;8.670;2022-11-15T06:14:47;9.10;88.60
46816;DHT22;32787;53.316;8.670;2022-11-15T06:17:13;9.00;88.80
46816;DHT22;32787;53.316;8.670;2022-11-15T06:19:38;9.00;88.90
46816;DHT22;32787;53.316;8.670;2022-11-15T06:22:04;9.00;89.00
46816;DHT22;32787;53.316;8.670;2022-11-15T06:24:29;9.10;89.10
46816;DHT22;32787;53.316;8.670;2022-11-15T06:26:55;9.10;89.10
46816;DHT22;32787;53.316;8.670;2022-11-15T06:29:21;9.10;89.10
46816;DHT22;32787;53.316;8.670;2022-11-15T06:31:46;9.10;89.00
46816;DHT22;32787;53.316;8.670;2022-11-15T06:34:12;9.10;89.20
46816;DHT22;32787;53.316;8.670;2022-11-15T06:36:37;9.10;89.20
46816;DHT22;32787;53.316;8.670;2022-11-15T06:39:04;9.20;89.40
46816;DHT22;32787;53.316;8.670;2022-11-15T06:41:30;9.20;89.00
46816;DHT22;32787;53.316;8.670;2022-11-15T06:43:56;9.20;88.80
46816;DHT22;32787;53.316;8.670;2022-11-15T06:46:22;9.20;88.60
46816;DHT22;32787;53.316;8.670;2022-11-15T06:48:51;9.00;88.80
46816;DHT22;32787;53.316;8.670;2022-11-15T06:51:16;9.00;89.00
46816;DHT22;32787;53.316;8.670;2022-11-15T06:53:42;9.00;89.30
46816;DHT22;32787;53.316;8.670;2022-11-15T06:56:08;9.10;89.20
46816;DHT22;32787;53.316;8.670;2022-11-15T06:58:34;9.00;89.20
46816;DHT22;32787;53.316;8.670;2022-11-15T07:01:02;9.00;89.60
46816;DHT22;32787;53.316;8.670;2022-11-15T07:03:29;8.90;90.10
46816;DHT22;32787;53.316;8.670;2022-11-15T07:05:56;9.20;90.30
46816;DHT22;32787;53.316;8.670;2022-11-15T07:08:22;9.20;89.30
46816;DHT22;32787;53.316;8.670;2022-11-15T07:10:49;9.10;89.30
46816;DHT22;32787;53.316;8.670;2022-11-15T07:13:14;9.00;89.60
46816;DHT22;32787;53.316;8.670;2022-11-15T07:15:40;9.00;90.00
46816;DHT22;32787;53.316;8.670;2022-11-15T07:18:06;9.20;90.30
46816;DHT22;32787;53.316;8.670;2022-11-15T07:20:31;9.10;90.20
46816;DHT22;32787;53.316;8.670;2022-11-15T07:23:04;9.40;89.90
46816;DHT22;32787;53.316;8.670;2022-11-15T07:25:31;9.50;88.70
46816;DHT22;32787;53.316;8.670;2022-11-15T07:27:57;9.20;88.70
46816;DHT22;32787;53.316;8.670;2022-11-15T07:30:24;9.10;89.10
46816;DHT22;32787;53.316;8.670;2022-11-15T07:32:57;9.00;89.50
46816;DHT22;32787;53.316;8.670;2022-11-15T07:35:23;9.00;89.50
46816;DHT22;32787;53.316;8.670;2022-11-15T07:38:07;9.00;89.80
46816;DHT22;32787;53.316;8.670;2022-11-15T07:40:33;9.00;89.90
46816;DHT22;32787;53.316;8.670;2022-11-15T07:43:03;9.10;89.60
46816;DHT22;32787;53.316;8.670;2022-11-15T07:45:29;9.30;88.90
46816;DHT22;32787;53.316;8.670;2022-11-15T07:47:55;9.10;89.20
46816;DHT22;32787;53.316;8.670;2022-11-15T07:50:22;9.00;89.40
46816;DHT22;32787;53.316;8.670;2022-11-15T07:52:56;9.10;89.70
46816;DHT22;32787;53.316;8.670;2022-11-15T07:55:23;9.00;89.80
46816;DHT22;32787;53.316;8.670;2022-11-15T07:57:49;9.10;89.90
46816;DHT22;32787;53.316;8.670;2022-11-15T08:00:15;9.00;90.10
46816;DHT22;32787;53.316;8.670;2022-11-15T08:02:41;9.20;90.30
46816;DHT22;32787;53.316;8.670;2022-11-15T08:05:06;9.30;89.80
46816;DHT22;32787;53.316;8.670;2022-11-15T08:07:32;9.30;90.00
46816;DHT22;32787;53.316;8.670;2022-11-15T08:09:58;9.30;90.10
46816;DHT22;32787;53.316;8.670;2022-11-15T08:12:24;9.50;90.30
46816;DHT22;32787;53.316;8.670;2022-11-15T08:14:50;9.50;90.10
46816;DHT22;32787;53.316;8.670;2022-11-15T08:17:15;9.70;90.00
46816;DHT22;32787;53.316;8.670;2022-11-15T08:19:42;9.80;89.80
46816;DHT22;32787;53.316;8.670;2022-11-15T08:22:08;10.10;88.90
46816;DHT22;32787;53.316;8.670;2022-11-15T08:24:33;10.10;88.90
46816;DHT22;32787;53.316;8.670;2022-11-15T08:26:59;10.10;89.20
46816;DHT22;32787;53.316;8.670;2022-11-15T08:29:25;10.10;89.70
46816;DHT22;32787;53.316;8.670;2022-11-15T08:31:54;10.30;90.10
46816;DHT22;32787;53.316;8.670;2022-11-15T08:34:19;10.30;90.00
46816;DHT22;32787;53.316;8.670;2022-11-15T08:36:45;10.40;90.10
46816;DHT22;32787;53.316;8.670;2022-11-15T08:39:11;10.50;90.10
46816;DHT22;32787;53.316;8.670;2022-11-15T08:41:38;10.60;90.00
46816;DHT22;32787;53.316;8.670;2022-11-15T08:44:04;10.70;89.90
46816;DHT22;32787;53.316;8.670;2022-11-15T08:46:29;10.80;89.50
46816;DHT22;32787;53.316;8.670;2022-11-15T08:48:55;10.80;89.00
46816;DHT22;32787;53.316;8.670;2022-11-15T08:51:20;10.80;88.90
46816;DHT22;32787;53.316;8.670;2022-11-15T08:53:46;10.90;89.00
46816;DHT22;32787;53.316;8.670;2022-11-15T08:56:13;10.80;88.90
46816;DHT22;32787;53.316;8.670;2022-11-15T08:58:40;10.80;88.80
46816;DHT22;32787;53.316;8.670;2022-11-15T09:01:06;10.80;88.90
46816;DHT22;32787;53.316;8.670;2022-11-15T09:03:32;10.90;88.70
46816;DHT22;32787;53.316;8.670;2022-11-15T09:05:59;11.00;88.60
46816;DHT22;32787;53.316;8.670;2022-11-15T09:08:29;11.00;88.70
46816;DHT22;32787;53.316;8.670;2022-11-15T09:10:55;11.10;88.50
46816;DHT22;32787;53.316;8.670;2022-11-15T09:13:21;11.10;88.60
46816;DHT22;32787;53.316;8.670;2022-11-15T09:15:47;11.20;88.30
46816;DHT22;32787;53.316;8.670;2022-11-15T09:18:12;11.30;88.30
46816;DHT22;32787;53.316;8.670;2022-11-15T09:20:38;11.30;88.20
46816;DHT22;32787;53.316;8.670;2022-11-15T09:23:04;11.40;87.90
46816;DHT22;32787;53.316;8.670;2022-11-15T09:25:30;11.40;88.00
46816;DHT22;32787;53.316;8.670;2022-11-15T09:27:56;11.50;87.70
46816;DHT22;32787;53.316;8.670;2022-11-15T09:30:23;11.50;87.50
46816;DHT22;32787;53.316;8.670;2022-11-15T09:32:49;11.60;87.40
46816;DHT22;32787;53.316;8.670;2022-11-15T09:35:15;11.60;87.50
46816;DHT22;32787;53.316;8.670;2022-11-15T09:37:40;11.60;87.20
46816;DHT22;32787;53.316;8.670;2022-11-15T09:40:12;11.80;86.90
46816;DHT22;32787;53.316;8.670;2022-11-15T09:45:26;12.00;86.40
46816;DHT22;32787;53.316;8.670;2022-11-15T09:48:03;12.10;85.90
46816;DHT22;32787;53.316;8.670;2022-11-15T09:50:38;12.30;85.80
46816;DHT22;32787;53.316;8.670;2022-11-15T09:53:11;12.30;85.50
46816;DHT22;32787;53.316;8.670;2022-11-15T09:55:59;12.30;85.20
46816;DHT22;32787;53.316;8.670;2022-11-15T10:01:19;12.20;85.90
46816;DHT22;32787;53.316;8.670;2022-11-15T10:03:48;12.20;85.80
46816;DHT22;32787;53.316;8.670;2022-11-15T10:06:25;12.20;85.60
46816;DHT22;32787;53.316;8.670;2022-11-15T10:09:02;12.30;85.50
46816;DHT22;32787;53.316;8.670;2022-11-15T10:11:32;12.30;85.50
46816;DHT22;32787;53.316;8.670;2022-11-15T10:14:02;12.50;85.10
46816;DHT22;32787;53.316;8.670;2022-11-15T10:22:26;12.80;84.90
46816;DHT22;32787;53.316;8.670;2022-11-15T10:27:29;13.10;83.70
46816;DHT22;32787;53.316;8.670;2022-11-15T10:29:55;13.00;83.80
46816;DHT22;32787;53.316;8.670;2022-11-15T10:32:21;13.10;83.40
46816;DHT22;32787;53.316;8.670;2022-11-15T10:34:49;13.20;83.30
46816;DHT22;32787;53.316;8.670;2022-11-15T10:37:15;13.30;83.30
46816;DHT22;32787;53.316;8.670;2022-11-15T10:40:20;13.40;82.60
46816;DHT22;32787;53.316;8.670;2022-11-15T10:42:45;13.40;82.80
46816;DHT22;32787;53.316;8.670;2022-11-15T10:45:31;13.40;82.50
46816;DHT22;32787;53.316;8.670;2022-11-15T10:48:29;13.40;82.50
46816;DHT22;32787;53.316;8.670;2022-11-15T10:50:55;13.30;82.30
46816;DHT22;32787;53.316;8.670;2022-11-15T10:53:31;13.30;82.80
46816;DHT22;32787;53.316;8.670;2022-11-15T10:56:02;13.30;82.90
46816;DHT22;32787;53.316;8.670;2022-11-15T10:58:41;13.30;82.90
46816;DHT22;32787;53.316;8.670;2022-11-15T11:01:12;13.30;83.10
46816;DHT22;32787;53.316;8.670;2022-11-15T11:03:39;13.40;83.00
46816;DHT22;32787;53.316;8.670;2022-11-15T11:06:08;13.50;82.40
46816;DHT22;32787;53.316;8.670;2022-11-15T11:08:34;13.60;82.40
46816;DHT22;32787;53.316;8.670;2022-11-15T11:11:01;13.70;81.80
46816;DHT22;32787;53.316;8.670;2022-11-15T11:13:32;13.70;81.70
46816;DHT22;32787;53.316;8.670;2022-11-15T11:16:22;13.60;81.90
46816;DHT22;32787;53.316;8.670;2022-11-15T11:24:42;13.70;81.60
46816;DHT22;32787;53.316;8.670;2022-11-15T11:30:10;13.80;81.90
46816;DHT22;32787;53.316;8.670;2022-11-15T11:33:02;13.80;81.50
46816;DHT22;32787;53.316;8.670;2022-11-15T11:40:44;13.90;81.20
46816;DHT22;32787;53.316;8.670;2022-11-15T11:43:39;14.00;81.20
46816;DHT22;32787;53.316;8.670;2022-11-15T11:48:58;13.90;81.20
46816;DHT22;32787;53.316;8.670;2022-11-15T11:54:31;14.00;80.90
46816;DHT22;32787;53.316;8.670;2022-11-15T11:57:00;14.20;81.00
46816;DHT22;32787;53.316;8.670;2022-11-15T11:59:42;14.40;79.90
46816;DHT22;32787;53.316;8.670;2022-11-15T12:02:21;14.50;80.00
46816;DHT22;32787;53.316;8.670;2022-11-15T12:04:52;14.60;79.60
46816;DHT22;32787;53.316;8.670;2022-11-15T12:07:25;14.40;80.10
46816;DHT22;32787;53.316;8.670;2022-11-15T12:10:32;14.70;79.50
46816;DHT22;32787;53.316;8.670;2022-11-15T12:15:59;14.80;79.10
46816;DHT22;32787;53.316;8.670;2022-11-15T12:18:28;14.80;79.00
46816;DHT22;32787;53.316;8.670;2022-11-15T12:21:21;14.60;78.60
46816;DHT22;32787;53.316;8.670;2022-11-15T12:27:38;14.30;79.30
46816;DHT22;32787;53.316;8.670;2022-11-15T12:30:22;14.40;79.60
46816;DHT22;32787;53.316;8.670;2022-11-15T12:38:51;14.50;79.50
46816;DHT22;32787;53.316;8.670;2022-11-15T12:41:20;14.40;79.50
46816;DHT22;32787;53.316;8.670;2022-11-15T12:43:47;14.30;79.50
46816;DHT22;32787;53.316;8.670;2022-11-15T12:46:21;14.30;79.80
46816;DHT22;32787;53.316;8.670;2022-11-15T12:48:51;14.20;80.10
46816;DHT22;32787;53.316;8.670;2022-11-15T12:51:19;14.20;79.90
46816;DHT22;32787;53.316;8.670;2022-11-15T12:53:44;14.20;79.60
46816;DHT22;32787;53.316;8.670;2022-11-15T13:12:48;13.90;80.40
46816;DHT22;32787;53.316;8.670;2022-11-15T13:17:39;13.80;81.10
46816;DHT22;32787;53.316;8.670;2022-11-15T13:31:01;13.80;81.10
46816;DHT22;32787;53.316;8.670;2022-11-15T13:33:33;14.00;80.80
46816;DHT22;32787;53.316;8.670;2022-11-15T13:36:05;14.00;80.40
46816;DHT22;32787;53.316;8.670;2022-11-15T13:38:35;13.90;80.70
46816;DHT22;32787;53.316;8.670;2022-11-15T13:43:37;13.80;81.00
46816;DHT22;32787;53.316;8.670;2022-11-15T13:46:21;13.80;80.80
46816;DHT22;32787;53.316;8.670;2022-11-15T13:49:10;13.90;80.70
46816;DHT22;32787;53.316;8.670;2022-11-15T13:51:53;13.80;80.80
46816;DHT22;32787;53.316;8.670;2022-11-15T13:57:25;14.00;80.90
46816;DHT22;32787;53.316;8.670;2022-11-15T13:59:59;14.10;80.60
46816;DHT22;32787;53.316;8.670;2022-11-15T14:02:30;14.10;80.40
46816;DHT22;32787;53.316;8.670;2022-11-15T14:05:03;14.10;80.10
46816;DHT22;32787;53.316;8.670;2022-11-15T14:07:32;14.30;80.00
46816;DHT22;32787;53.316;8.670;2022-11-15T14:10:24;14.30;79.80
46816;DHT22;32787;53.316;8.670;2022-11-15T14:12:51;14.30;79.90
46816;DHT22;32787;53.316;8.670;2022-11-15T14:17:54;14.10;80.40
46816;DHT22;32787;53.316;8.670;2022-11-15T14:20:40;14.00;80.60
46816;DHT22;32787;53.316;8.670;2022-11-15T14:23:26;14.00;80.70
46816;DHT22;32787;53.316;8.670;2022-11-15T14:25:59;13.90;80.70
46816;DHT22;32787;53.316;8.670;2022-11-15T14:30:53;13.80;81.40
46816;DHT22;32787;53.316;8.670;2022-11-15T14:35:51;13.60;82.10
46816;DHT22;32787;53.316;8.670;2022-11-15T14:38:17;13.60;82.30
46816;DHT22;32787;53.316;8.670;2022-11-15T14:40:43;13.50;82.10
46816;DHT22;32787;53.316;8.670;2022-11-15T14:43:10;13.30;82.60
46816;DHT22;32787;53.316;8.670;2022-11-15T14:45:37;13.30;82.80
46816;DHT22;32787;53.316;8.670;2022-11-15T14:48:03;13.30;82.90
46816;DHT22;32787;53.316;8.670;2022-11-15T14:50:29;13.20;82.90
46816;DHT22;32787;53.316;8.670;2022-11-15T14:52:54;13.10;83.20
46816;DHT22;32787;53.316;8.670;2022-11-15T14:55:23;12.90;83.30
46816;DHT22;32787;53.316;8.670;2022-11-15T14:57:49;12.80;83.60
46816;DHT22;32787;53.316;8.670;2022-11-15T15:00:16;12.70;83.80
46816;DHT22;32787;53.316;8.670;2022-11-15T15:02:43;12.50;84.20
46816;DHT22;32787;53.316;8.670;2022-11-15T15:05:33;12.40;84.30
46816;DHT22;32787;53.316;8.670;2022-11-15T15:07:58;12.30;84.40
46816;DHT22;32787;53.316;8.670;2022-11-15T15:10:25;12.10;84.80
46816;DHT22;32787;53.316;8.670;2022-11-15T15:12:53;11.90;85.30
46816;DHT22;32787;53.316;8.670;2022-11-15T15:15:23;11.80;85.40
46816;DHT22;32787;53.316;8.670;2022-11-15T15:17:49;11.60;85.20
46816;DHT22;32787;53.316;8.670;2022-11-15T15:20:15;11.50;85.70
46816;DHT22;32787;53.316;8.670;2022-11-15T15:22:41;11.30;86.20
46816;DHT22;32787;53.316;8.670;2022-11-15T15:25:33;11.20;86.40
46816;DHT22;32787;53.316;8.670;2022-11-15T15:28:00;11.10;86.90
46816;DHT22;32787;53.316;8.670;2022-11-15T15:30:28;10.90;86.80
46816;DHT22;32787;53.316;8.670;2022-11-15T15:32:55;10.80;87.00
46816;DHT22;32787;53.316;8.670;2022-11-15T15:35:20;10.60;87.30
46816;DHT22;32787;53.316;8.670;2022-11-15T15:37:47;10.60;87.40
46816;DHT22;32787;53.316;8.670;2022-11-15T15:40:19;10.50;87.30
46816;DHT22;32787;53.316;8.670;2022-11-15T15:42:45;10.70;86.80
46816;DHT22;32787;53.316;8.670;2022-11-15T15:45:11;10.60;86.80
46816;DHT22;32787;53.316;8.670;2022-11-15T15:47:37;10.40;87.10
46816;DHT22;32787;53.316;8.670;2022-11-15T15:50:10;10.30;87.40
46816;DHT22;32787;53.316;8.670;2022-11-15T15:52:39;10.40;87.60
46816;DHT22;32787;53.316;8.670;2022-11-15T15:55:05;10.50;87.30
46816;DHT22;32787;53.316;8.670;2022-11-15T15:57:31;10.60;86.90
46816;DHT22;32787;53.316;8.670;2022-11-15T15:59:56;10.50;86.60
46816;DHT22;32787;53.316;8.670;2022-11-15T16:02:22;10.60;86.70
46816;DHT22;32787;53.316;8.670;2022-11-15T16:04:48;10.70;86.90
46816;DHT22;32787;53.316;8.670;2022-11-15T16:07:19;10.90;86.80
46816;DHT22;32787;53.316;8.670;2022-11-15T16:09:46;10.90;86.10
46816;DHT22;32787;53.316;8.670;2022-11-15T16:12:30;10.90;86.10
46816;DHT22;32787;53.316;8.670;2022-11-15T16:14:56;10.90;85.90
46816;DHT22;32787;53.316;8.670;2022-11-15T16:17:25;10.80;86.30
46816;DHT22;32787;53.316;8.670;2022-11-15T16:19:51;10.90;86.30
46816;DHT22;32787;53.316;8.670;2022-11-15T16:22:17;11.10;85.70
46816;DHT22;32787;53.316;8.670;2022-11-15T16:24:42;11.00;85.60
46816;DHT22;32787;53.316;8.670;2022-11-15T16:27:16;10.90;85.70
46816;DHT22;32787;53.316;8.670;2022-11-15T16:29:43;10.90;85.60
46816;DHT22;32787;53.316;8.670;2022-11-15T16:32:08;10.80;85.80
46816;DHT22;32787;53.316;8.670;2022-11-15T16:34:34;10.80;85.90
46816;DHT22;32787;53.316;8.670;2022-11-15T16:37:00;10.80;86.10
46816;DHT22;32787;53.316;8.670;2022-11-15T16:39:26;10.80;86.30
46816;DHT22;32787;53.316;8.670;2022-11-15T16:41:53;10.80;86.30
46816;DHT22;32787;53.316;8.670;2022-11-15T16:44:18;10.80;86.10
46816;DHT22;32787;53.316;8.670;2022-11-15T16:46:44;10.80;86.10
46816;DHT22;32787;53.316;8.670;2022-11-15T16:49:17;10.80;86.20
46816;DHT22;32787;53.316;8.670;2022-11-15T16:51:47;10.70;86.10
46816;DHT22;32787;53.316;8.670;2022-11-15T16:54:14;10.70;86.60
46816;DHT22;32787;53.316;8.670;2022-11-15T16:56:40;10.80;86.30
46816;DHT22;32787;53.316;8.670;2022-11-15T16:59:06;10.80;86.30
46816;DHT22;32787;53.316;8.670;2022-11-15T17:01:35;10.80;86.40
46816;DHT22;32787;53.316;8.670;2022-11-15T17:04:03;10.80;86.30
46816;DHT22;32787;53.316;8.670;2022-11-15T17:06:38;10.80;86.10
46816;DHT22;32787;53.316;8.670;2022-11-15T17:09:04;10.80;86.30
46816;DHT22;32787;53.316;8.670;2022-11-15T17:11:29;10.80;86.30
46816;DHT22;32787;53.316;8.670;2022-11-15T17:13:58;10.90;86.30
46816;DHT22;32787;53.316;8.670;2022-11-15T17:16:25;11.00;86.10
46816;DHT22;32787;53.316;8.670;2022-11-15T17:18:51;11.00;85.90
46816;DHT22;32787;53.316;8.670;2022-11-15T17:21:20;11.10;85.50
46816;DHT22;32787;53.316;8.670;2022-11-15T17:23:47;11.10;85.70
46816;DHT22;32787;53.316;8.670;2022-11-15T17:26:14;11.10;85.80
46816;DHT22;32787;53.316;8.670;2022-11-15T17:28:40;11.10;85.70
46816;DHT22;32787;53.316;8.670;2022-11-15T17:31:08;11.30;85.30
46816;DHT22;32787;53.316;8.670;2022-11-15T17:33:34;11.30;85.10
46816;DHT22;32787;53.316;8.670;2022-11-15T17:36:02;11.40;85.00
46816;DHT22;32787;53.316;8.670;2022-11-15T17:38:28;11.40;84.90
46816;DHT22;32787;53.316;8.670;2022-11-15T17:41:06;11.40;84.90
46816;DHT22;32787;53.316;8.670;2022-11-15T17:43:34;11.50;84.60
46816;DHT22;32787;53.316;8.670;2022-11-15T17:46:04;11.50;84.70